Time;durP1;ratioP1;P1;durP2;ratioP2;P2;SDS_P1;SDS_P2;PMS_P1;PMS_P2;Temp;Humidity;BMP_temperature;BMP_pressure;BME280_temperature;BME280_humidity;BME280_pressure;Samples;Min_cycle;Max_cycle;Signal;HPM_P1;HPM_P2
2023/03/14 00:00:54;;;;;;;0.55;0.30;;;12.50;99.90;;;;;;5091289;28;20020;-73
2023/03/14 00:03:19;;;;;;;2.25;0.43;;;12.50;99.90;;;;;;5090527;28;20054;-74
2023/03/14 00:05:45;;;;;;;0.47;0.30;;;12.50;99.90;;;;;;5092120;28;20461;-74
2023/03/14 00:08:11;;;;;;;0.20;0.20;;;12.50;99.90;;;;;;5092525;28;20027;-74
2023/03/14 00:10:37;;;;;;;0.90;0.30;;;12.50;99.90;;;;;;5090696;28;20043;-74
2023/03/14 00:13:03;;;;;;;1.35;0.40;;;12.60;99.90;;;;;;5092310;28;20024;-74
2023/03/14 00:15:28;;;;;;;1.08;0.20;;;12.60;99.90;;;;;;5090470;28;20024;-74
2023/03/14 00:17:54;;;;;;;1.80;0.40;;;12.50;99.90;;;;;;5084379;28;20121;-74
2023/03/14 00:20:20;;;;;;;0.50;0.50;;;12.60;99.90;;;;;;5070442;28;20478;-75
2023/03/14 00:22:45;;;;;;;1.00;0.40;;;12.60;99.90;;;;;;5072032;28;20024;-74
2023/03/14 00:25:12;;;;;;;0.93;0.30;;;12.60;99.90;;;;;;5071900;28;20511;-74
2023/03/14 00:27:38;;;;;;;1.05;0.30;;;12.60;99.90;;;;;;5070745;28;20035;-74
2023/03/14 00:30:05;;;;;;;0.98;0.40;;;12.60;99.90;;;;;;5072419;28;20094;-73
2023/03/14 00:32:31;;;;;;;0.50;0.25;;;12.60;99.90;;;;;;5070392;28;20465;-74
2023/03/14 00:34:56;;;;;;;0.30;0.20;;;12.60;99.90;;;;;;5070929;28;20074;-73
2023/03/14 00:37:22;;;;;;;0.30;0.30;;;12.60;99.90;;;;;;5069662;28;20037;-74
2023/03/14 00:39:47;;;;;;;0.50;0.20;;;12.60;99.90;;;;;;5070677;28;20024;-75
2023/03/14 00:42:13;;;;;;;1.88;0.40;;;12.60;99.90;;;;;;5071866;28;20024;-76
2023/03/14 00:44:39;;;;;;;0.85;0.30;;;12.60;99.90;;;;;;5071898;28;20070;-74
2023/03/14 00:47:05;;;;;;;0.35;0.30;;;12.60;99.90;;;;;;5071078;28;20067;-74
2023/03/14 00:49:30;;;;;;;1.27;0.40;;;12.60;99.90;;;;;;5070354;28;20407;-74
2023/03/14 00:51:56;;;;;;;1.33;0.20;;;12.60;99.90;;;;;;5072312;28;20446;-74
2023/03/14 00:54:21;;;;;;;2.20;0.30;;;12.60;99.90;;;;;;5070251;28;20027;-75
2023/03/14 00:56:47;;;;;;;2.15;0.30;;;12.60;99.90;;;;;;5071727;28;20032;-74
2023/03/14 00:59:13;;;;;;;1.95;0.30;;;12.60;99.90;;;;;;5071766;28;20025;-74
2023/03/14 01:01:39;;;;;;;0.43;0.30;;;12.60;99.90;;;;;;5071234;28;20339;-73
2023/03/14 01:04:05;;;;;;;0.85;0.40;;;12.60;99.90;;;;;;5071880;28;20029;-73
2023/03/14 01:06:31;;;;;;;0.22;0.22;;;12.60;99.90;;;;;;5069561;28;20024;-73
2023/03/14 01:08:57;;;;;;;0.35;0.20;;;12.60;99.90;;;;;;5071827;28;20021;-75
2023/03/14 01:11:26;;;;;;;0.32;0.28;;;12.60;99.90;;;;;;5070004;28;20151;-75
2023/03/14 01:13:53;;;;;;;0.75;0.20;;;12.60;99.90;;;;;;5070862;28;20136;-76
2023/03/14 01:16:21;;;;;;;2.25;0.47;;;12.50;99.90;;;;;;5070137;28;20028;-80
2023/03/14 01:18:46;;;;;;;0.60;0.30;;;12.50;99.90;;;;;;5072300;28;20033;-75
2023/03/14 01:21:21;;;;;;;0.88;0.32;;;12.50;99.90;;;;;;5070557;28;20021;-73
2023/03/14 01:23:48;;;;;;;0.30;0.22;;;12.50;99.90;;;;;;5070487;28;20411;-73
2023/03/14 01:26:18;;;;;;;0.40;0.20;;;12.50;99.90;;;;;;5070522;28;20032;-73
2023/03/14 01:28:44;;;;;;;0.28;0.20;;;12.40;99.90;;;;;;5070273;28;20016;-73
2023/03/14 01:31:11;;;;;;;2.13;0.30;;;12.40;99.90;;;;;;5071342;28;20020;-73
2023/03/14 01:33:37;;;;;;;0.80;0.30;;;12.40;99.90;;;;;;5069182;28;20672;-73
2023/03/14 01:36:03;;;;;;;2.58;0.30;;;12.40;99.90;;;;;;5069639;28;20048;-73
2023/03/14 01:38:30;;;;;;;0.30;0.30;;;12.30;99.90;;;;;;5069094;28;20037;-73
2023/03/14 01:40:56;;;;;;;0.52;0.30;;;12.30;99.90;;;;;;5071230;28;20064;-73
2023/03/14 01:43:24;;;;;;;0.40;0.30;;;12.30;99.90;;;;;;5070688;28;20066;-74
2023/03/14 01:46:05;;;;;;;1.35;0.32;;;12.30;99.90;;;;;;5074871;28;20135;-73
2023/03/14 01:48:55;;;;;;;2.45;0.40;;;12.30;99.90;;;;;;5072599;28;20032;-73
2023/03/14 01:51:27;;;;;;;0.35;0.30;;;12.20;99.90;;;;;;5072853;28;20457;-75
2023/03/14 01:53:55;;;;;;;0.50;0.32;;;12.20;99.90;;;;;;5073974;28;20111;-73
2023/03/14 01:56:21;;;;;;;3.33;0.40;;;12.20;99.90;;;;;;5073188;28;20076;-74
2023/03/14 01:58:50;;;;;;;1.05;0.68;;;12.10;99.90;;;;;;5074941;28;20016;-73
2023/03/14 02:01:19;;;;;;;1.00;0.40;;;12.10;99.90;;;;;;5074991;28;20453;-73
2023/03/14 02:03:51;;;;;;;0.77;0.50;;;12.10;99.90;;;;;;5073149;28;20469;-73
2023/03/14 02:06:21;;;;;;;1.65;0.30;;;12.00;99.90;;;;;;5074574;28;20021;-73
2023/03/14 02:08:49;;;;;;;0.38;0.38;;;12.00;99.90;;;;;;5074648;28;20047;-73
2023/03/14 02:11:15;;;;;;;1.95;0.47;;;12.00;99.90;;;;;;5074785;28;20017;-72
2023/03/14 02:13:42;;;;;;;2.92;0.35;;;11.90;99.90;;;;;;5072523;28;20588;-73
2023/03/14 02:16:08;;;;;;;0.90;0.45;;;11.90;99.90;;;;;;5073199;28;20051;-73
2023/03/14 02:18:33;;;;;;;1.80;0.35;;;11.90;99.90;;;;;;5072994;28;20032;-73
2023/03/14 02:21:20;;;;;;;1.67;0.50;;;11.90;99.90;;;;;;5074807;28;20028;-73
2023/03/14 02:24:03;;;;;;;0.75;0.30;;;11.90;99.90;;;;;;5072996;28;20028;-71
2023/03/14 02:26:41;;;;;;;0.20;0.20;;;11.90;99.90;;;;;;5075311;28;20031;-77
2023/03/14 02:29:07;;;;;;;0.50;0.40;;;11.90;99.90;;;;;;5073970;28;20024;-74
2023/03/14 02:31:33;;;;;;;0.80;0.30;;;11.90;99.90;;;;;;5072694;28;20154;-71
2023/03/14 02:34:01;;;;;;;1.83;0.38;;;11.80;99.90;;;;;;5073280;28;20017;-72
2023/03/14 02:36:27;;;;;;;0.68;0.40;;;11.80;99.90;;;;;;5073379;28;20056;-72
2023/03/14 02:39:06;;;;;;;0.40;0.40;;;11.80;99.90;;;;;;5073051;28;20105;-71
2023/03/14 02:41:32;;;;;;;0.60;0.50;;;11.80;99.90;;;;;;5073339;28;20036;-71
2023/03/14 02:43:57;;;;;;;1.17;0.40;;;11.80;99.90;;;;;;5072842;28;20032;-71
2023/03/14 02:46:23;;;;;;;1.75;0.50;;;11.80;99.90;;;;;;5083997;28;20024;-73
2023/03/14 02:48:53;;;;;;;1.27;0.68;;;11.80;99.90;;;;;;5092634;28;20126;-72
2023/03/14 02:51:20;;;;;;;2.95;0.50;;;11.80;99.90;;;;;;5091578;28;20030;-72
2023/03/14 02:53:46;;;;;;;1.17;0.45;;;11.80;99.90;;;;;;5072165;28;20024;-71
2023/03/14 02:56:12;;;;;;;0.52;0.35;;;11.80;99.90;;;;;;5073630;28;20441;-72
2023/03/14 02:58:38;;;;;;;1.55;0.38;;;11.80;99.90;;;;;;5080583;28;20461;-72
2023/03/14 03:01:03;;;;;;;0.98;0.52;;;11.70;99.90;;;;;;5091866;28;20060;-72
2023/03/14 03:03:29;;;;;;;1.20;0.43;;;11.70;99.90;;;;;;5091792;28;20028;-72
2023/03/14 03:05:56;;;;;;;1.38;0.50;;;11.70;99.90;;;;;;5093443;28;20353;-72
2023/03/14 03:08:24;;;;;;;0.70;0.40;;;11.80;99.90;;;;;;5093366;28;20024;-73
2023/03/14 03:10:49;;;;;;;2.33;0.40;;;11.70;99.90;;;;;;5093424;28;20024;-72
2023/03/14 03:13:16;;;;;;;1.90;0.60;;;11.70;99.90;;;;;;5093425;28;20350;-72
2023/03/14 03:15:42;;;;;;;1.25;0.30;;;11.70;99.90;;;;;;5092439;28;20038;-72
2023/03/14 03:18:08;;;;;;;0.63;0.30;;;11.70;99.90;;;;;;5091995;28;20551;-72
2023/03/14 03:20:33;;;;;;;0.93;0.30;;;11.70;99.90;;;;;;5092959;28;20028;-72
2023/03/14 03:22:59;;;;;;;2.30;0.30;;;11.60;99.90;;;;;;5092234;28;20164;-71
2023/03/14 03:25:25;;;;;;;1.25;0.40;;;11.60;99.90;;;;;;5093196;28;20072;-74
2023/03/14 03:27:51;;;;;;;1.10;0.40;;;11.60;99.90;;;;;;5091998;28;20462;-72
2023/03/14 03:30:17;;;;;;;1.17;0.40;;;11.60;99.90;;;;;;5093180;28;20027;-72
2023/03/14 03:32:42;;;;;;;2.55;0.50;;;11.60;99.90;;;;;;5092556;28;20020;-72
2023/03/14 03:35:08;;;;;;;1.85;0.73;;;11.70;99.90;;;;;;5093274;28;20028;-72
2023/03/14 03:37:35;;;;;;;1.83;0.50;;;11.70;99.90;;;;;;5091262;28;20093;-72
2023/03/14 03:40:01;;;;;;;1.10;0.55;;;11.70;99.90;;;;;;5093305;28;20020;-72
2023/03/14 03:42:29;;;;;;;1.52;0.40;;;11.70;99.90;;;;;;5092619;28;20023;-75
2023/03/14 03:44:54;;;;;;;3.40;0.73;;;11.60;99.90;;;;;;5092916;28;20414;-72
2023/03/14 03:47:20;;;;;;;1.77;0.43;;;11.60;99.90;;;;;;5093403;28;20059;-71
2023/03/14 03:49:46;;;;;;;4.43;0.40;;;11.60;99.90;;;;;;5092651;28;20181;-72
2023/03/14 03:52:11;;;;;;;0.93;0.43;;;11.60;99.90;;;;;;5093392;28;20361;-73
2023/03/14 03:54:37;;;;;;;1.70;0.45;;;11.60;99.90;;;;;;5092448;28;20023;-73
2023/03/14 03:57:02;;;;;;;2.83;0.47;;;11.60;99.90;;;;;;5091653;28;20062;-73
2023/03/14 03:59:28;;;;;;;2.55;0.40;;;11.60;99.90;;;;;;5092429;28;20028;-72
2023/03/14 04:01:53;;;;;;;4.03;0.40;;;11.60;99.90;;;;;;5091534;28;20024;-72
2023/03/14 04:04:19;;;;;;;1.33;0.40;;;11.60;99.90;;;;;;5091484;28;20024;-71
2023/03/14 04:06:45;;;;;;;1.88;0.52;;;11.60;99.90;;;;;;5091793;28;20028;-72
2023/03/14 04:09:11;;;;;;;4.00;0.50;;;11.70;99.90;;;;;;5091171;28;20024;-72
2023/03/14 04:11:37;;;;;;;2.55;0.30;;;11.60;99.90;;;;;;5090883;28;20016;-72
2023/03/14 04:14:03;;;;;;;3.63;0.60;;;11.60;99.90;;;;;;5091076;28;20020;-71
2023/03/14 04:16:31;;;;;;;0.50;0.35;;;11.60;99.90;;;;;;5091956;28;20019;-74
2023/03/14 04:18:57;;;;;;;3.22;0.52;;;11.60;99.90;;;;;;5093108;28;20039;-72
2023/03/14 04:21:23;;;;;;;2.05;0.38;;;11.60;99.90;;;;;;5091317;28;20567;-72
2023/03/14 04:23:48;;;;;;;2.45;0.63;;;11.60;99.90;;;;;;5090777;28;20479;-72
2023/03/14 04:26:14;;;;;;;3.35;0.70;;;11.60;99.90;;;;;;5091386;28;20016;-72
2023/03/14 04:28:39;;;;;;;5.00;0.82;;;11.50;99.90;;;;;;5090636;28;20024;-72
2023/03/14 04:31:14;;;;;;;0.68;0.43;;;11.50;99.90;;;;;;5091270;28;20055;-72
2023/03/14 04:33:39;;;;;;;3.28;0.60;;;11.50;99.90;;;;;;5090150;28;20107;-72
2023/03/14 04:36:06;;;;;;;2.15;0.40;;;11.50;99.90;;;;;;5090892;28;20154;-72
2023/03/14 04:38:32;;;;;;;2.25;0.30;;;11.50;99.90;;;;;;5090458;28;20028;-73
2023/03/14 04:40:59;;;;;;;1.92;0.47;;;11.50;99.90;;;;;;5092564;28;20031;-72
2023/03/14 04:43:25;;;;;;;3.65;0.68;;;11.50;99.90;;;;;;5090826;28;20024;-71
2023/03/14 04:45:54;;;;;;;2.10;0.65;;;11.40;99.90;;;;;;5091719;28;20092;-72
2023/03/14 04:48:20;;;;;;;2.20;0.52;;;11.40;99.90;;;;;;5091138;28;20024;-71
2023/03/14 04:50:47;;;;;;;2.08;0.57;;;11.40;99.90;;;;;;5090064;28;20073;-71
2023/03/14 04:53:13;;;;;;;2.55;0.40;;;11.50;99.90;;;;;;5092302;28;20506;-71
2023/03/14 04:55:38;;;;;;;2.30;0.47;;;11.40;99.90;;;;;;5090152;28;20023;-72
2023/03/14 04:58:04;;;;;;;2.63;0.50;;;11.50;99.90;;;;;;5091007;28;20020;-71
2023/03/14 05:00:30;;;;;;;1.85;0.52;;;11.50;99.90;;;;;;5087589;28;20032;-75
2023/03/14 05:02:55;;;;;;;6.65;0.68;;;11.50;99.90;;;;;;5081475;28;20020;-72
2023/03/14 05:05:21;;;;;;;2.28;0.60;;;11.50;99.90;;;;;;5083302;28;20055;-72
2023/03/14 05:07:47;;;;;;;1.58;0.40;;;11.50;99.90;;;;;;5072786;28;20458;-72
2023/03/14 05:10:12;;;;;;;4.45;0.47;;;11.60;99.90;;;;;;5084086;28;20028;-72
2023/03/14 05:12:38;;;;;;;1.40;0.40;;;11.60;99.90;;;;;;5078077;28;20044;-72
2023/03/14 05:15:04;;;;;;;2.95;0.52;;;11.60;99.90;;;;;;5070727;28;20021;-72
2023/03/14 05:17:32;;;;;;;1.70;0.50;;;11.60;99.90;;;;;;5071512;28;20127;-74
2023/03/14 05:19:57;;;;;;;2.72;0.63;;;11.60;99.90;;;;;;5089710;28;20466;-72
2023/03/14 05:22:23;;;;;;;3.85;0.40;;;11.70;99.90;;;;;;5095757;28;20081;-72
2023/03/14 05:24:48;;;;;;;2.42;0.60;;;11.60;99.90;;;;;;5093905;28;20461;-72
2023/03/14 05:27:14;;;;;;;2.13;0.45;;;11.60;99.90;;;;;;5094755;28;20165;-72
2023/03/14 05:29:39;;;;;;;4.50;0.50;;;11.60;99.90;;;;;;5095260;28;20357;-72
2023/03/14 05:32:05;;;;;;;2.17;0.40;;;11.60;99.90;;;;;;5094639;28;20099;-72
2023/03/14 05:34:31;;;;;;;3.60;0.77;;;11.70;99.90;;;;;;5094470;28;20425;-73
2023/03/14 05:36:56;;;;;;;1.65;0.32;;;11.70;99.90;;;;;;5093715;28;20413;-71
2023/03/14 05:39:23;;;;;;;2.30;0.50;;;11.70;99.90;;;;;;5094337;28;20023;-72
2023/03/14 05:41:49;;;;;;;1.90;0.30;;;11.60;99.90;;;;;;5094455;28;20055;-72
2023/03/14 05:44:15;;;;;;;3.67;0.57;;;11.60;99.90;;;;;;5094433;28;20060;-72
2023/03/14 05:46:41;;;;;;;2.72;0.30;;;11.60;99.90;;;;;;5094673;28;20020;-72
2023/03/14 05:49:06;;;;;;;1.92;0.60;;;11.60;99.90;;;;;;5095176;28;20414;-71
2023/03/14 05:51:32;;;;;;;1.80;0.30;;;11.60;99.90;;;;;;5093974;28;20044;-73
2023/03/14 05:53:57;;;;;;;0.70;0.30;;;11.50;99.90;;;;;;5093657;28;20066;-72
2023/03/14 05:56:23;;;;;;;1.20;0.20;;;11.50;99.90;;;;;;5094042;28;20078;-72
2023/03/14 05:58:48;;;;;;;0.93;0.40;;;11.40;99.90;;;;;;5093282;28;20060;-72
2023/03/14 06:01:14;;;;;;;1.30;0.40;;;11.40;99.90;;;;;;5088128;28;20088;-72
2023/03/14 06:03:40;;;;;;;1.48;0.40;;;11.40;99.90;;;;;;5085645;28;20353;-72
2023/03/14 06:06:06;;;;;;;3.38;0.50;;;11.40;99.90;;;;;;5085491;28;20025;-72
2023/03/14 06:08:31;;;;;;;3.53;0.47;;;11.30;99.90;;;;;;5073684;28;20369;-73
2023/03/14 06:10:58;;;;;;;2.72;0.43;;;11.30;99.90;;;;;;5072970;28;20519;-72
2023/03/14 06:13:23;;;;;;;3.22;0.40;;;11.30;99.90;;;;;;5074866;28;20021;-72
2023/03/14 06:15:49;;;;;;;3.03;0.68;;;11.30;99.90;;;;;;5075610;28;20020;-72
2023/03/14 06:18:15;;;;;;;1.15;0.50;;;11.30;99.90;;;;;;5085481;28;20038;-72
2023/03/14 06:20:40;;;;;;;1.17;0.32;;;11.20;99.90;;;;;;5080733;28;20017;-73
2023/03/14 06:23:07;;;;;;;0.98;0.32;;;11.20;99.90;;;;;;5086549;28;20013;-73
2023/03/14 06:25:34;;;;;;;2.70;0.40;;;11.20;99.90;;;;;;5086417;28;20406;-72
2023/03/14 06:27:59;;;;;;;1.50;0.47;;;11.20;99.90;;;;;;5073988;28;20094;-72
2023/03/14 06:30:25;;;;;;;1.27;0.40;;;11.20;99.90;;;;;;5073854;28;20025;-72
2023/03/14 06:32:50;;;;;;;3.00;0.55;;;11.20;99.90;;;;;;5072126;28;20415;-72
2023/03/14 06:35:16;;;;;;;1.50;0.50;;;11.20;99.90;;;;;;5074263;28;20021;-72
2023/03/14 06:37:42;;;;;;;0.93;0.30;;;11.20;99.90;;;;;;5073084;28;20356;-73
2023/03/14 06:40:10;;;;;;;1.60;0.35;;;11.20;99.90;;;;;;5073029;28;20051;-72
2023/03/14 06:42:35;;;;;;;2.78;0.70;;;11.20;99.90;;;;;;5075990;28;20082;-73
2023/03/14 06:45:01;;;;;;;2.60;0.50;;;11.30;99.90;;;;;;5089762;28;20411;-72
2023/03/14 06:47:27;;;;;;;1.90;0.55;;;11.30;99.90;;;;;;5078764;28;20522;-72
2023/03/14 06:49:52;;;;;;;2.35;0.65;;;11.40;99.90;;;;;;5082165;28;20078;-72
2023/03/14 06:52:18;;;;;;;1.38;0.57;;;11.40;99.90;;;;;;5074789;28;20616;-72
2023/03/14 06:54:44;;;;;;;1.27;0.95;;;11.50;99.90;;;;;;5073064;28;20020;-72
2023/03/14 06:57:09;;;;;;;2.13;0.35;;;11.50;99.90;;;;;;5072338;28;20119;-71
2023/03/14 06:59:35;;;;;;;2.25;0.60;;;11.50;99.90;;;;;;5073807;28;20469;-71
2023/03/14 07:02:00;;;;;;;2.92;0.30;;;11.60;99.90;;;;;;5088989;28;20020;-72
2023/03/14 07:04:26;;;;;;;2.10;0.60;;;11.60;99.90;;;;;;5092735;28;20020;-72
2023/03/14 07:06:51;;;;;;;1.10;0.40;;;11.60;99.90;;;;;;5091681;28;20494;-72
2023/03/14 07:09:17;;;;;;;1.23;0.40;;;11.70;99.90;;;;;;5092461;28;20020;-72
2023/03/14 07:11:43;;;;;;;1.73;0.40;;;11.70;99.90;;;;;;5077889;28;20028;-72
2023/03/14 07:14:09;;;;;;;1.27;0.40;;;11.80;99.90;;;;;;5073755;28;20031;-72
2023/03/14 07:16:35;;;;;;;0.82;0.40;;;11.80;99.90;;;;;;5077849;28;20473;-73
2023/03/14 07:19:01;;;;;;;4.22;0.47;;;11.80;99.90;;;;;;5071484;28;20029;-72
2023/03/14 07:21:27;;;;;;;1.85;0.40;;;11.80;99.90;;;;;;5078771;28;20095;-72
2023/03/14 07:23:53;;;;;;;1.15;0.20;;;11.90;99.90;;;;;;5078184;28;20092;-72
2023/03/14 07:26:19;;;;;;;2.33;0.90;;;11.90;99.90;;;;;;5081924;28;20020;-72
2023/03/14 07:28:45;;;;;;;1.73;0.65;;;12.00;99.90;;;;;;5077172;28;20021;-72
2023/03/14 07:31:10;;;;;;;1.63;0.63;;;12.00;99.90;;;;;;5072257;28;20415;-72
2023/03/14 07:33:36;;;;;;;1.27;0.32;;;12.00;99.90;;;;;;5067332;28;20386;-72
2023/03/14 07:36:03;;;;;;;0.82;0.32;;;12.00;99.90;;;;;;5072802;28;20044;-72
2023/03/14 07:38:29;;;;;;;2.58;0.30;;;12.10;99.90;;;;;;5087134;28;20027;-73
2023/03/14 07:41:02;;;;;;;0.73;0.30;;;12.10;99.90;;;;;;5082604;28;20031;-72
2023/03/14 07:43:28;;;;;;;1.23;0.65;;;12.10;99.90;;;;;;5083620;28;20392;-72
2023/03/14 07:45:54;;;;;;;0.93;0.35;;;12.20;99.90;;;;;;5080583;28;20028;-73
2023/03/14 07:48:19;;;;;;;1.05;0.50;;;12.20;99.90;;;;;;5080867;28;20528;-72
2023/03/14 07:50:49;;;;;;;2.63;0.50;;;12.30;99.90;;;;;;5078099;28;20016;-72
2023/03/14 07:53:15;;;;;;;0.60;0.20;;;12.30;99.90;;;;;;5076079;28;20021;-73
2023/03/14 07:55:40;;;;;;;1.27;0.30;;;12.30;99.90;;;;;;5076774;28;20048;-76
2023/03/14 07:58:06;;;;;;;1.13;0.50;;;12.40;99.90;;;;;;5070277;28;20485;-72
2023/03/14 08:00:32;;;;;;;1.00;0.30;;;12.40;99.90;;;;;;5060497;28;20020;-72
2023/03/14 08:02:58;;;;;;;2.50;0.38;;;12.40;99.90;;;;;;5065163;28;20078;-74
2023/03/14 08:05:23;;;;;;;0.63;0.30;;;12.30;99.90;;;;;;5070932;28;20016;-73
2023/03/14 08:07:49;;;;;;;1.38;0.22;;;12.30;99.90;;;;;;5077150;28;20462;-72
2023/03/14 08:10:24;;;;;;;1.00;0.35;;;12.30;99.90;;;;;;5070587;28;20020;-75
2023/03/14 08:12:53;;;;;;;1.45;0.40;;;12.30;99.90;;;;;;5106144;27;20063;-74
2023/03/14 08:15:19;;;;;;;1.20;0.30;;;12.40;99.90;;;;;;5068631;28;20051;-74
2023/03/14 08:17:44;;;;;;;2.95;0.35;;;12.40;99.90;;;;;;5076125;28;20044;-73
2023/03/14 08:20:11;;;;;;;1.98;0.35;;;12.40;99.90;;;;;;5057487;28;20024;-74
2023/03/14 08:22:37;;;;;;;1.98;0.40;;;12.40;99.90;;;;;;5071115;28;20070;-73
2023/03/14 08:25:03;;;;;;;3.08;0.70;;;12.30;99.90;;;;;;5071399;28;20412;-72
2023/03/14 08:27:29;;;;;;;1.42;0.22;;;12.30;99.90;;;;;;5072937;28;20027;-73
2023/03/14 08:29:55;;;;;;;1.88;0.30;;;12.30;99.90;;;;;;5077715;28;20040;-74
2023/03/14 08:32:22;;;;;;;0.50;0.40;;;12.30;99.90;;;;;;5079977;28;20009;-72
2023/03/14 08:34:47;;;;;;;2.10;0.30;;;12.40;99.90;;;;;;5065646;28;20246;-72
2023/03/14 08:37:13;;;;;;;1.40;0.35;;;12.30;99.90;;;;;;5081964;28;20043;-73
2023/03/14 08:39:39;;;;;;;1.92;0.30;;;12.30;99.90;;;;;;5077762;28;20020;-74
2023/03/14 08:42:04;;;;;;;2.05;0.40;;;12.40;99.90;;;;;;5074305;28;20020;-73
2023/03/14 08:44:30;;;;;;;1.73;0.30;;;12.40;99.90;;;;;;5071494;28;20047;-72
2023/03/14 08:46:55;;;;;;;2.03;0.30;;;12.30;99.90;;;;;;5077465;28;20043;-73
2023/03/14 08:49:21;;;;;;;1.50;0.32;;;12.40;99.90;;;;;;5083513;28;20024;-73
2023/03/14 08:51:47;;;;;;;2.92;0.30;;;12.50;99.90;;;;;;5077766;28;20120;-73
2023/03/14 08:54:12;;;;;;;2.10;0.40;;;12.50;99.90;;;;;;5078189;28;20074;-73
2023/03/14 08:56:38;;;;;;;0.30;0.30;;;12.40;99.90;;;;;;5070602;28;20099;-76
2023/03/14 08:59:04;;;;;;;1.38;0.40;;;12.40;99.90;;;;;;5087333;28;20074;-73
2023/03/14 09:01:30;;;;;;;2.70;0.82;;;12.40;99.90;;;;;;5067729;28;20028;-73
2023/03/14 09:03:56;;;;;;;1.85;0.40;;;12.50;99.90;;;;;;5074864;28;20032;-73
2023/03/14 09:06:22;;;;;;;1.70;0.40;;;12.40;99.90;;;;;;5079626;28;20020;-73
2023/03/14 09:08:47;;;;;;;0.35;0.30;;;12.40;99.90;;;;;;5064937;28;20355;-74
2023/03/14 09:11:13;;;;;;;1.33;0.22;;;12.50;99.90;;;;;;5076566;28;20016;-73
2023/03/14 09:13:39;;;;;;;0.47;0.40;;;12.50;99.90;;;;;;5079300;28;20020;-76
2023/03/14 09:16:05;;;;;;;0.57;0.30;;;12.60;99.90;;;;;;5064540;28;20008;-73
2023/03/14 09:18:31;;;;;;;0.45;0.30;;;12.60;99.90;;;;;;5071602;28;20118;-73
2023/03/14 09:20:57;;;;;;;0.70;0.30;;;12.70;99.90;;;;;;5081901;28;20408;-73
2023/03/14 09:23:22;;;;;;;0.77;0.30;;;12.70;99.90;;;;;;5075622;28;20032;-73
2023/03/14 09:25:48;;;;;;;1.55;0.20;;;12.70;99.90;;;;;;5073796;28;20047;-74
2023/03/14 09:28:14;;;;;;;0.85;0.60;;;12.80;99.90;;;;;;5058951;28;20024;-73
2023/03/14 09:30:39;;;;;;;0.50;0.32;;;12.70;99.90;;;;;;5077725;28;20570;-76
2023/03/14 09:33:05;;;;;;;0.63;0.20;;;12.70;99.90;;;;;;5087576;28;20058;-73
2023/03/14 09:35:30;;;;;;;1.13;0.20;;;12.80;99.90;;;;;;5089146;28;20066;-73
2023/03/14 09:37:56;;;;;;;1.58;0.40;;;12.80;99.90;;;;;;5089258;28;20051;-74
2023/03/14 09:40:23;;;;;;;0.50;0.47;;;12.80;99.90;;;;;;5084309;28;20426;-73
2023/03/14 09:42:54;;;;;;;0.88;0.30;;;12.70;99.90;;;;;;5085530;28;20480;-73
2023/03/14 09:45:28;;;;;;;0.25;0.20;;;12.70;99.90;;;;;;5084305;28;20024;-73
2023/03/14 09:47:56;;;;;;;2.33;0.32;;;12.80;99.90;;;;;;5085405;28;20434;-73
2023/03/14 09:50:24;;;;;;;0.25;0.10;;;12.80;99.90;;;;;;5076702;28;20036;-73
2023/03/14 09:52:55;;;;;;;0.28;0.20;;;12.70;99.90;;;;;;5093029;28;20102;-73
2023/03/14 09:55:22;;;;;;;0.38;0.30;;;12.80;99.90;;;;;;5081991;28;20380;-73
2023/03/14 09:58:09;;;;;;;0.50;0.20;;;12.80;99.90;;;;;;5090321;28;20040;-73
2023/03/14 10:00:35;;;;;;;1.25;0.50;;;12.80;99.90;;;;;;5089680;28;20020;-73
2023/03/14 10:03:21;;;;;;;0.45;0.20;;;12.70;99.90;;;;;;5082508;28;20093;-73
2023/03/14 10:05:47;;;;;;;0.65;0.40;;;12.70;99.90;;;;;;5077523;28;20120;-74
2023/03/14 10:08:13;;;;;;;1.77;0.28;;;12.70;99.90;;;;;;5071541;28;20103;-73
2023/03/14 10:10:39;;;;;;;0.85;0.65;;;12.70;99.90;;;;;;5053442;28;20418;-72
2023/03/14 10:13:21;;;;;;;0.13;0.13;;;12.70;99.90;;;;;;5086218;28;20116;-73
2023/03/14 10:15:55;;;;;;;0.40;0.30;;;12.60;99.90;;;;;;5068231;28;20545;-73
2023/03/14 10:18:23;;;;;;;0.28;0.20;;;12.60;99.90;;;;;;5073788;28;20500;-72
2023/03/14 10:21:00;;;;;;;0.38;0.20;;;12.50;99.90;;;;;;5074464;28;20017;-72
2023/03/14 10:23:31;;;;;;;2.80;0.30;;;12.50;99.90;;;;;;5075176;28;20016;-72
2023/03/14 10:26:15;;;;;;;1.00;0.20;;;12.40;99.90;;;;;;5075085;28;20024;-72
2023/03/14 10:28:47;;;;;;;0.75;0.20;;;12.40;99.90;;;;;;5059179;28;20458;-73
2023/03/14 10:31:13;;;;;;;0.95;0.30;;;12.30;99.90;;;;;;5080877;28;20020;-72
2023/03/14 10:33:39;;;;;;;0.47;0.30;;;12.30;99.90;;;;;;5062661;28;20087;-72
2023/03/14 10:36:21;;;;;;;2.00;0.22;;;12.30;99.90;;;;;;5089172;27;20619;-73
2023/03/14 10:38:47;;;;;;;0.43;0.32;;;12.30;99.90;;;;;;5059631;28;20028;-73
2023/03/14 10:41:20;;;;;;;0.30;0.20;;;12.20;99.90;;;;;;5071485;28;20029;-73
2023/03/14 10:43:51;;;;;;;1.70;0.40;;;12.20;99.90;;;;;;5101926;27;20029;-74
2023/03/14 10:46:18;;;;;;;1.65;0.50;;;12.00;99.90;;;;;;5076413;28;20028;-73
2023/03/14 10:48:45;;;;;;;0.45;0.30;;;11.90;99.90;;;;;;5074133;28;20032;-74
2023/03/14 10:51:17;;;;;;;1.85;0.20;;;11.70;99.90;;;;;;5079005;28;20100;-73
2023/03/14 10:53:44;;;;;;;1.55;0.32;;;11.60;99.90;;;;;;5074763;28;20021;-75
2023/03/14 10:56:14;;;;;;;1.75;0.30;;;11.60;99.90;;;;;;5076147;28;20016;-73
2023/03/14 10:58:45;;;;;;;1.65;0.30;;;11.60;99.90;;;;;;5073061;28;20028;-73
2023/03/14 11:01:45;;;;;;;0.20;0.20;;;11.50;99.90;;;;;;5078572;28;20024;-73
2023/03/14 11:04:20;;;;;;;0.60;0.30;;;11.40;99.90;;;;;;5073040;28;20029;-73
2023/03/14 11:06:58;;;;;;;0.35;0.32;;;11.40;99.90;;;;;;5072933;28;20071;-74
2023/03/14 11:09:50;;;;;;;0.20;0.20;;;11.40;99.90;;;;;;5076503;28;20013;-72
2023/03/14 11:12:19;;;;;;;0.50;0.22;;;11.40;99.90;;;;;;5111178;27;20025;-74
2023/03/14 11:14:53;;;;;;;2.08;0.20;;;11.40;99.90;;;;;;5079479;28;20020;-76
2023/03/14 11:17:34;;;;;;;1.08;0.25;;;11.40;99.90;;;;;;5085422;28;20055;-73
2023/03/14 11:20:24;;;;;;;0.32;0.20;;;11.40;99.90;;;;;;5075087;28;20477;-73
2023/03/14 11:23:07;;;;;;;0.30;0.30;;;11.30;99.90;;;;;;5076406;28;20016;-73
2023/03/14 11:25:53;;;;;;;0.75;0.30;;;11.20;99.90;;;;;;5075726;28;20364;-72
2023/03/14 11:28:44;;;;;;;0.50;0.30;;;11.20;99.90;;;;;;5077167;28;20418;-72
2023/03/14 11:31:24;;;;;;;0.55;0.30;;;11.20;99.90;;;;;;5102471;27;20021;-74
2023/03/14 11:33:59;;;;;;;3.67;1.08;;;11.10;99.90;;;;;;5096497;27;20017;-74
2023/03/14 11:36:35;;;;;;;1.20;0.40;;;11.20;99.90;;;;;;5082655;28;20044;-74
2023/03/14 11:39:03;;;;;;;1.15;0.40;;;11.20;99.90;;;;;;5080910;28;20353;-73
2023/03/14 11:42:02;;;;;;;0.73;0.43;;;11.00;99.90;;;;;;5077049;28;20489;-73
2023/03/14 11:44:36;;;;;;;1.50;0.38;;;10.80;99.90;;;;;;5071320;28;20168;-72
2023/03/14 11:47:19;;;;;;;1.30;0.50;;;10.70;99.90;;;;;;5067488;28;20040;-71
2023/03/14 11:50:12;;;;;;;1.08;0.73;;;10.70;99.90;;;;;;5099917;27;20025;-76
2023/03/14 11:52:44;;;;;;;0.50;0.50;;;10.50;99.90;;;;;;5080046;28;20523;-74
2023/03/14 11:55:33;;;;;;;1.00;0.50;;;10.50;99.90;;;;;;5070734;28;20094;-72
2023/03/14 11:58:09;;;;;;;0.82;0.40;;;10.40;99.90;;;;;;5078518;28;20040;-72
2023/03/14 12:00:38;;;;;;;0.50;0.40;;;10.20;99.90;;;;;;5087315;28;20514;-72
2023/03/14 12:03:31;;;;;;;1.10;0.40;;;10.10;99.90;;;;;;5074290;28;20510;-73
2023/03/14 12:06:24;;;;;;;2.47;0.63;;;10.10;99.90;;;;;;5077853;28;20492;-73
2023/03/14 12:08:53;;;;;;;1.77;0.57;;;10.20;99.90;;;;;;5071754;28;20037;-73
2023/03/14 12:11:42;;;;;;;0.88;0.50;;;10.20;99.90;;;;;;5067828;28;20052;-73
2023/03/14 12:14:25;;;;;;;0.75;0.50;;;10.20;99.90;;;;;;5075630;28;20032;-73
2023/03/14 12:17:07;;;;;;;0.90;0.50;;;10.20;99.90;;;;;;5069894;28;20431;-73
2023/03/14 12:19:39;;;;;;;0.47;0.40;;;10.20;99.90;;;;;;5068816;28;20023;-73
2023/03/14 12:22:13;;;;;;;;;;;10.30;99.90;;;;;;5073908;28;20028;-73
2023/03/14 12:24:47;;;;;;;0.73;0.40;;;10.40;99.90;;;;;;5075001;28;19965;-72
2023/03/14 12:27:44;;;;;;;0.70;0.40;;;10.40;99.90;;;;;;5073588;28;20060;-72
2023/03/14 12:30:29;;;;;;;0.90;0.50;;;10.50;99.90;;;;;;5081892;28;20017;-72
2023/03/14 12:33:10;;;;;;;0.75;0.43;;;10.60;99.90;;;;;;5076446;28;20111;-73
2023/03/14 12:35:50;;;;;;;1.05;0.50;;;10.60;99.90;;;;;;5073792;28;20074;-73
2023/03/14 12:38:18;;;;;;;0.35;0.35;;;10.70;99.90;;;;;;5065826;28;20116;-73
2023/03/14 12:41:03;;;;;;;1.85;0.60;;;10.80;99.90;;;;;;5111155;27;20074;-76
2023/03/14 12:43:33;;;;;;;2.45;0.45;;;11.10;99.90;;;;;;5076362;28;20027;-73
2023/03/14 12:46:16;;;;;;;0.85;0.45;;;11.20;99.90;;;;;;5075393;28;20020;-73
2023/03/14 12:49:04;;;;;;;2.72;0.52;;;11.20;99.90;;;;;;5084522;28;20456;-72
2023/03/14 12:51:46;;;;;;;1.52;0.50;;;11.00;99.90;;;;;;5067163;28;20138;-72
2023/03/14 12:54:17;;;;;;;2.55;0.35;;;11.20;99.90;;;;;;5076275;28;20099;-72
2023/03/14 12:57:11;;;;;;;1.50;0.30;;;11.30;98.40;;;;;;5080979;28;20020;-72